Terminal Aerodrome Forecast
Issued by NWS Cleveland, OH

Home | Current Version | Previous Version | Text Only | Print | Product List | Glossary On
Versions: 1 2 3 4 5 6 7 8 9 10 11 12 13 14 15 16 17
000
FTUS41 KCLE 211700
TAFCAK
TAF
KCAK 211731Z 2118/2218 18004KT P6SM OVC025
     FM212100 15004KT P6SM BKN025 OVC035
     FM220200 12005KT P6SM SCT035 OVC250
      TEMPO 2210/2213 4SM BR
     FM221500 15008KT P6SM FEW030 BKN250=

USA.gov is the U.S. government's official web portal to all federal, state and local government web resources and services.